Time;durP1;ratioP1;P1;durP2;ratioP2;P2;SDS_P1;SDS_P2;PMS_P1;PMS_P2;Temp;Humidity;BMP_temperature;BMP_pressure;BME280_temperature;BME280_humidity;BME280_pressure;Samples;Min_cycle;Max_cycle;Signal;HPM_P1;HPM_P2
2022/06/10 00:04:01;;;;;;;9.60;8.60;;;;;;;17.49;80.17;99598.25;216301;1274;140716;-63
2022/06/10 00:09:05;;;;;;;12.50;8.80;;;;;;;17.54;80.02;99606.77;216258;1273;140594;-64
2022/06/10 00:14:09;;;;;;;9.90;8.70;;;;;;;17.52;79.78;99603.78;215393;1274;141162;-63
2022/06/10 00:19:16;;;;;;;9.90;8.30;;;;;;;17.41;79.81;99601.35;215236;1274;140723;-64
2022/06/10 00:24:21;;;;;;;9.50;8.50;;;;;;;17.42;79.99;99616.16;215215;1273;161618;-63
2022/06/10 00:29:28;;;;;;;14.80;8.50;;;;;;;17.32;79.79;99613.82;214964;1274;153088;-65
2022/06/10 00:34:35;;;;;;;10.50;8.50;;;;;;;17.30;79.85;99622.36;215058;1274;140124;-63
2022/06/10 00:39:40;;;;;;;14.30;8.70;;;;;;;17.18;80.09;99637.95;214130;1274;141639;-63
2022/06/10 00:44:53;;;;;;;10.40;8.00;;;;;;;17.21;80.43;99652.96;213543;1274;141717;-63
2022/06/10 00:50:20;;;;;;;11.40;7.90;;;;;;;17.10;80.26;99655.14;214103;1274;141785;-63
2022/06/10 00:55:29;;;;;;;9.00;8.10;;;;;;;17.03;80.86;99658.10;213298;1274;141148;-66
2022/06/10 01:00:37;;;;;;;9.00;8.00;;;;;;;17.12;81.33;99660.13;214197;1274;141129;-65
2022/06/10 01:05:42;;;;;;;9.50;8.30;;;;;;;17.11;81.02;99662.45;213592;1274;143488;-65
2022/06/10 01:11:11;;;;;;;9.90;8.60;;;;;;;17.13;81.43;99654.25;213603;1274;141791;-63
2022/06/10 01:16:49;;;;;;;13.50;7.70;;;;;;;17.25;81.61;99657.57;215386;1274;141418;-63
2022/06/10 01:22:05;;;;;;;8.80;7.80;;;;;;;17.29;81.39;99667.95;214510;1273;140357;-64
2022/06/10 01:27:49;;;;;;;15.00;9.10;;;;;;;17.30;81.21;99670.41;215128;1274;141326;-65
2022/06/10 01:33:22;;;;;;;11.10;9.60;;;;;;;17.32;81.35;99672.13;214934;1273;141888;-64
2022/06/10 01:38:34;;;;;;;10.80;9.70;;;;;;;17.30;81.32;99668.59;215716;1274;140175;-64
2022/06/10 01:43:41;;;;;;;9.70;8.70;;;;;;;17.34;81.30;99667.86;215366;1274;141137;-65
2022/06/10 01:48:54;;;;;;;;;;;;;;;17.38;81.22;99670.74;216053;1274;141282;-63
2022/06/10 01:54:22;;;;;;;10.70;9.60;;;;;;;17.30;80.88;99674.02;216720;1273;126715;-63
2022/06/10 01:59:28;;;;;;;15.30;9.80;;;;;;;17.28;81.05;99683.52;215178;1274;141576;-66
2022/06/10 02:04:36;;;;;;;;;;;;;;;17.25;80.93;99685.75;215768;1272;139781;-66
2022/06/10 02:10:00;;;;;;;16.50;9.70;;;;;;;17.18;80.88;99692.73;216160;1274;127125;-66
2022/06/10 02:15:18;;;;;;;10.10;8.30;;;;;;;17.07;80.98;99694.06;214377;1273;1177881;-65
2022/06/10 02:20:27;;;;;;;11.80;8.70;;;;;;;17.10;81.22;99693.08;214329;1274;140757;-65
2022/06/10 02:25:39;;;;;;;9.50;7.60;;;;;;;17.11;81.23;99692.59;214399;1274;140990;-65
2022/06/10 02:31:16;;;;;;;15.70;9.10;;;;;;;17.09;81.09;99704.00;214818;1274;140453;-64
2022/06/10 02:36:28;;;;;;;7.80;7.10;;;;;;;17.10;81.05;99707.56;213229;1274;140387;-65
2022/06/10 02:42:00;;;;;;;8.90;8.00;;;;;;;17.08;80.98;99703.80;213811;1274;140187;-66
2022/06/10 02:47:40;;;;;;;8.20;7.30;;;;;;;17.08;81.06;99712.09;214478;1273;232027;-66
2022/06/10 02:52:46;;;;;;;7.20;6.60;;;;;;;17.07;81.18;99722.34;213828;1273;139853;-65
2022/06/10 03:03:43;;;;;;;12.50;6.40;;;;;;;17.02;80.96;99738.25;214382;1274;141375;-64
2022/06/10 03:08:56;;;;;;;7.20;5.90;;;;;;;17.03;81.22;99742.72;214816;1274;142301;-65
2022/06/10 03:14:41;;;;;;;6.70;6.00;;;;;;;17.08;81.14;99745.39;213903;1271;140387;-65
2022/06/10 03:20:05;;;;;;;7.30;6.00;;;;;;;17.07;80.88;99749.38;214317;1274;140501;-65
2022/06/10 03:25:16;;;;;;;8.80;5.90;;;;;;;17.08;81.05;99753.52;213954;1274;139974;-65
2022/06/10 03:30:30;;;;;;;8.40;6.50;;;;;;;17.10;81.07;99762.83;213808;1271;139860;-66
2022/06/10 03:35:49;;;;;;;15.80;7.00;;;;;;;17.10;81.21;99771.13;216057;1274;140143;-66
2022/06/10 03:40:58;;;;;;;5.40;4.90;;;;;;;17.14;81.35;99780.14;215868;1274;139749;-66
2022/06/10 03:46:11;;;;;;;7.30;6.60;;;;;;;17.17;81.17;99790.35;215847;1274;140060;-66
2022/06/10 03:51:17;;;;;;;7.40;6.60;;;;;;;17.19;81.27;99793.27;216067;1274;140282;-65
2022/06/10 03:56:24;;;;;;;8.90;6.60;;;;;;;17.23;81.38;99799.71;215190;1274;140400;-65
2022/06/10 04:01:30;;;;;;;11.10;6.80;;;;;;;17.26;81.51;99807.45;214872;1274;140449;-65
2022/06/10 04:06:35;;;;;;;8.60;7.40;;;;;;;17.31;81.49;99807.11;215283;1274;141502;-64
2022/06/10 04:12:00;;;;;;;8.60;7.70;;;;;;;17.35;81.52;99816.10;213384;1274;140474;-65
2022/06/10 04:17:06;;;;;;;12.70;8.40;;;;;;;17.42;81.73;99820.58;214527;1274;140567;-63
2022/06/10 04:22:10;;;;;;;9.50;8.40;;;;;;;17.50;81.72;99830.83;214793;1274;141159;-65
2022/06/10 04:27:14;;;;;;;9.60;7.90;;;;;;;17.57;81.68;99835.27;213465;1274;140153;-66
2022/06/10 04:32:19;;;;;;;10.30;8.80;;;;;;;17.65;81.99;99841.19;214198;1274;139973;-65
2022/06/10 04:37:25;;;;;;;12.00;8.80;;;;;;;17.75;81.93;99844.08;213426;1274;141812;-66
2022/06/10 04:42:31;;;;;;;11.70;9.50;;;;;;;17.83;81.75;99844.80;213987;1274;139937;-66
2022/06/10 04:47:35;;;;;;;11.40;9.40;;;;;;;17.85;81.89;99850.39;214210;1274;140373;-66
2022/06/10 04:52:41;;;;;;;10.30;9.00;;;;;;;17.91;82.05;99857.96;214322;1273;140643;-64
2022/06/10 04:57:47;;;;;;;10.30;8.00;;;;;;;17.95;81.83;99864.95;214308;1274;140371;-65
2022/06/10 05:02:53;;;;;;;8.60;7.80;;;;;;;18.01;81.88;99869.98;215076;1274;140326;-66
2022/06/10 05:07:58;;;;;;;;;;;;;;;18.14;82.05;99874.79;214643;1274;140546;-66
2022/06/10 05:13:05;;;;;;;8.20;7.50;;;;;;;18.28;81.96;99881.55;214893;1274;127150;-65
2022/06/10 05:18:11;;;;;;;10.70;7.80;;;;;;;18.47;81.88;99890.07;214851;1274;140515;-66
2022/06/10 05:23:18;;;;;;;7.00;6.30;;;;;;;18.59;81.76;99899.06;214047;1274;142116;-66
2022/06/10 05:28:23;;;;;;;8.50;7.70;;;;;;;18.65;81.46;99908.05;214793;1274;140486;-65
2022/06/10 05:34:44;;;;;;;8.50;7.60;;;;;;;18.63;81.45;99914.88;215325;1274;141058;-65
2022/06/10 05:38:55;;;;;;;8.90;8.10;;;;;;;18.72;81.53;99923.09;216323;1272;141760;-65
2022/06/10 05:44:00;;;;;;;8.50;7.60;;;;;;;18.89;81.64;99929.75;216335;1273;140761;-65
2022/06/10 05:49:06;;;;;;;8.60;7.80;;;;;;;19.05;81.33;99939.52;216194;1274;141580;-65
2022/06/10 05:54:14;;;;;;;9.10;7.80;;;;;;;19.11;80.94;99939.73;215963;1274;140395;-65
2022/06/10 05:59:19;;;;;;;9.70;7.80;;;;;;;19.08;80.61;99950.73;215230;1273;139671;-65
2022/06/10 06:04:24;;;;;;;10.20;8.80;;;;;;;19.01;80.36;99953.71;215807;1274;140985;-65
2022/06/10 06:09:29;;;;;;;15.40;10.60;;;;;;;19.00;80.52;99961.23;215056;1273;140077;-65
2022/06/10 06:14:35;;;;;;;15.20;11.70;;;;;;;19.09;80.79;99967.38;214275;1274;140553;-68
2022/06/10 06:19:40;;;;;;;11.00;9.90;;;;;;;19.22;80.77;99976.28;214423;1274;141280;-67
2022/06/10 06:24:46;;;;;;;12.10;10.60;;;;;;;19.20;80.30;99976.73;213861;1274;141279;-66
2022/06/10 06:29:53;;;;;;;20.20;14.10;;;;;;;19.10;80.25;99978.66;213425;1274;153854;-65
2022/06/10 06:34:58;;;;;;;15.10;13.50;;;;;;;19.05;80.57;99983.30;213738;1274;143095;-65
2022/06/10 06:40:04;;;;;;;14.60;13.10;;;;;;;19.00;80.50;99984.69;214428;1273;141356;-65
2022/06/10 06:45:10;;;;;;;17.10;14.00;;;;;;;18.99;80.60;99988.91;214163;1274;142491;-66
2022/06/10 06:50:29;;;;;;;25.90;17.20;;;;;;;18.94;80.61;99996.85;213536;1274;141446;-65
2022/06/10 06:55:35;;;;;;;18.70;16.90;;;;;;;18.81;80.30;100003.71;213712;1274;143208;-67
2022/06/10 07:00:41;;;;;;;16.60;14.70;;;;;;;18.61;80.04;100012.33;214452;1274;227069;-66
2022/06/10 07:05:49;;;;;;;16.10;14.60;;;;;;;18.47;80.29;100017.26;214538;1274;142031;-65
2022/06/10 07:10:54;;;;;;;12.10;11.00;;;;;;;18.43;80.21;100025.44;214588;1274;140713;-66
2022/06/10 07:16:01;;;;;;;11.60;10.50;;;;;;;18.34;79.94;100039.86;215075;1274;140899;-65
2022/06/10 07:21:07;;;;;;;10.60;9.50;;;;;;;18.33;79.85;100043.86;214793;1273;140703;-65
2022/06/10 07:26:12;;;;;;;8.90;8.10;;;;;;;18.33;79.81;100047.52;213477;1276;141827;-65
2022/06/10 07:31:17;;;;;;;8.30;7.50;;;;;;;18.23;79.34;100054.27;215628;1274;140366;-66
2022/06/10 07:36:22;;;;;;;11.00;9.50;;;;;;;18.11;79.32;100057.88;216211;1273;139853;-66
2022/06/10 07:46:53;;;;;;;10.40;9.30;;;;;;;18.09;79.16;100066.63;216275;1273;141234;-65
2022/06/10 07:52:06;;;;;;;11.20;9.90;;;;;;;18.10;79.03;100072.39;215462;1274;140960;-66
2022/06/10 07:57:12;;;;;;;12.40;11.00;;;;;;;17.99;78.93;100080.17;213883;1274;140682;-65
2022/06/10 08:02:17;;;;;;;11.90;10.70;;;;;;;17.92;79.03;100083.69;214574;1274;142335;-65
2022/06/10 08:07:23;;;;;;;13.30;11.90;;;;;;;17.89;79.43;100093.84;213918;1274;140935;-66
2022/06/10 08:12:28;;;;;;;10.90;9.90;;;;;;;17.88;79.28;100098.58;214281;1274;140156;-65
2022/06/10 08:17:34;;;;;;;12.90;10.80;;;;;;;17.86;79.28;100097.51;214773;1274;142438;-64
2022/06/10 08:22:38;;;;;;;11.00;10.00;;;;;;;17.80;79.18;100107.39;214862;1273;141312;-65
2022/06/10 08:27:43;;;;;;;10.50;9.30;;;;;;;17.71;79.24;100109.90;213544;1273;140069;-66
2022/06/10 08:32:47;;;;;;;8.10;7.30;;;;;;;17.66;79.14;100118.79;214624;1274;140903;-67
2022/06/10 08:37:52;;;;;;;9.40;8.50;;;;;;;17.60;79.24;100125.24;213600;1274;141971;-64
2022/06/10 08:43:06;;;;;;;13.10;8.00;;;;;;;17.55;79.14;100127.79;214091;1274;141040;-66
2022/06/10 08:48:39;;;;;;;8.30;7.60;;;;;;;17.56;79.39;100134.46;214232;1273;141069;-66
2022/06/10 08:53:49;;;;;;;8.40;7.60;;;;;;;17.58;79.23;100142.17;213313;1275;140384;-65
2022/06/10 08:59:29;;;;;;;9.00;8.10;;;;;;;17.63;79.41;100148.65;214772;1274;140769;-65
2022/06/10 09:05:06;;;;;;;9.20;8.40;;;;;;;17.69;79.48;100153.53;214099;1274;141587;-66
2022/06/10 09:10:23;;;;;;;9.90;8.90;;;;;;;17.76;79.41;100157.92;215296;1274;141498;-66
2022/06/10 09:15:30;;;;;;;;;;;;;;;17.78;79.31;100166.39;214624;1274;141016;-66
2022/06/10 09:21:07;;;;;;;11.30;9.00;;;;;;;17.82;79.45;100167.73;215540;1274;128166;-66
2022/06/10 09:26:19;;;;;;;9.70;8.50;;;;;;;17.93;79.43;100173.98;214942;1273;143625;-65
2022/06/10 09:31:38;;;;;;;9.40;8.60;;;;;;;17.95;79.40;100184.28;215887;1274;142125;-64
2022/06/10 09:37:09;;;;;;;9.80;8.80;;;;;;;18.11;79.55;100186.13;215295;1274;151924;-65
2022/06/10 09:42:46;;;;;;;9.80;8.80;;;;;;;18.31;79.53;100186.85;215986;1274;141385;-65
2022/06/10 09:48:19;;;;;;;10.70;9.20;;;;;;;18.49;79.43;100192.98;214534;1274;141793;-65
2022/06/10 09:53:45;;;;;;;9.20;8.30;;;;;;;18.63;79.45;100196.05;214905;1274;142429;-65
2022/06/10 09:59:10;;;;;;;;;;;;;;;18.87;79.61;100193.93;214723;1275;141692;-66
2022/06/10 10:04:36;;;;;;;8.40;7.70;;;;;;;19.27;79.16;100200.49;215651;1274;129131;-66
2022/06/10 10:10:03;;;;;;;8.90;8.20;;;;;;;19.84;79.13;100200.08;213775;1274;139962;-65
2022/06/10 10:15:33;;;;;;;9.90;8.00;;;;;;;20.33;78.51;100201.70;214002;1274;142496;-65
2022/06/10 10:20:41;;;;;;;10.70;8.00;;;;;;;20.63;77.65;100207.81;213445;1274;140802;-65
2022/06/10 10:25:49;;;;;;;10.30;7.80;;;;;;;20.74;77.29;100213.27;213878;1274;139619;-65
2022/06/10 10:31:20;;;;;;;9.20;8.40;;;;;;;20.79;76.82;100215.30;214605;1273;140694;-65
2022/06/10 10:36:40;;;;;;;8.10;7.50;;;;;;;20.91;76.34;100211.78;214402;1274;139411;-66
2022/06/10 10:41:48;;;;;;;8.40;7.70;;;;;;;21.45;76.22;100212.39;214466;1274;140853;-65
2022/06/10 10:47:11;;;;;;;8.00;7.20;;;;;;;21.74;75.41;100210.02;213478;1277;140122;-64
2022/06/10 10:52:17;;;;;;;8.30;7.50;;;;;;;22.29;75.21;100202.86;214970;1274;140596;-64
2022/06/10 10:57:26;;;;;;;17.40;7.90;;;;;;;22.79;73.95;100207.92;214714;1273;139517;-64
2022/06/10 11:02:38;;;;;;;9.10;8.30;;;;;;;22.69;72.63;100215.88;214242;1274;140404;-65
2022/06/10 11:07:45;;;;;;;10.60;8.20;;;;;;;22.65;72.57;100214.96;214614;1274;139668;-65
2022/06/10 11:12:50;;;;;;;7.90;7.30;;;;;;;22.79;72.08;100212.05;213457;1274;140213;-65
2022/06/10 11:17:56;;;;;;;;;;;;;;;23.05;71.57;100215.34;214194;1274;141109;-65
2022/06/10 11:23:30;;;;;;;9.80;8.60;;;;;;;23.08;71.11;100213.66;216816;1274;126325;-65
2022/06/10 11:28:39;;;;;;;8.40;7.70;;;;;;;23.00;70.17;100220.35;216145;1274;140093;-65
2022/06/10 11:33:47;;;;;;;7.40;6.80;;;;;;;23.14;69.87;100219.66;215786;1274;140737;-66
2022/06/10 11:39:13;;;;;;;8.50;7.80;;;;;;;23.40;69.46;100216.61;214427;1274;140563;-65
2022/06/10 11:44:22;;;;;;;7.40;6.70;;;;;;;23.62;69.22;100214.91;215650;1274;139803;-66
2022/06/10 11:49:34;;;;;;;8.40;7.70;;;;;;;23.87;68.53;100220.02;215332;1274;140058;-65
2022/06/10 11:55:05;;;;;;;6.10;5.50;;;;;;;24.07;68.06;100222.05;214745;1274;151599;-65
2022/06/10 12:00:12;;;;;;;6.70;6.10;;;;;;;23.71;67.00;100220.48;214406;1274;140174;-63
2022/06/10 12:05:31;;;;;;;16.60;5.80;;;;;;;23.80;67.32;100219.73;214861;1274;139809;-65
2022/06/10 12:10:55;;;;;;;6.50;6.00;;;;;;;24.02;66.88;100220.77;214798;1274;139411;-65
2022/06/10 12:15:59;;;;;;;5.30;4.90;;;;;;;23.80;66.36;100220.90;213452;1274;140126;-65
2022/06/10 12:21:05;;;;;;;6.90;6.20;;;;;;;24.00;66.06;100212.39;213596;1274;139869;-65
2022/06/10 12:26:37;;;;;;;5.60;5.10;;;;;;;23.72;65.68;100215.50;213910;1274;139857;-65
2022/06/10 12:31:45;;;;;;;5.50;5.00;;;;;;;23.53;65.63;100219.41;213385;1274;151280;-64
2022/06/10 12:37:05;;;;;;;5.20;4.80;;;;;;;23.50;65.73;100211.07;215163;1274;139417;-65
2022/06/10 12:42:25;;;;;;;5.40;5.00;;;;;;;23.63;64.94;100213.21;214647;1274;140442;-65
2022/06/10 12:47:35;;;;;;;6.00;4.70;;;;;;;23.57;64.46;100215.48;213098;1274;140549;-65
2022/06/10 12:52:50;;;;;;;4.90;4.40;;;;;;;23.90;64.99;100219.45;214983;1274;139948;-66
2022/06/10 12:57:55;;;;;;;5.20;4.80;;;;;;;24.31;64.74;100214.17;214920;1274;140494;-65
2022/06/10 13:03:15;;;;;;;3.90;3.60;;;;;;;24.30;63.93;100218.52;214792;1274;140459;-64
2022/06/10 13:08:37;;;;;;;4.00;3.50;;;;;;;24.49;63.50;100218.69;214548;1274;140302;-65
2022/06/10 13:13:47;;;;;;;5.00;3.80;;;;;;;24.56;62.68;100218.17;215620;1274;140220;-65
2022/06/10 13:19:00;;;;;;;2.60;2.40;;;;;;;24.52;62.27;100213.61;214606;1274;139574;-64
2022/06/10 13:24:15;;;;;;;2.30;2.10;;;;;;;24.35;61.39;100209.52;214396;1274;140573;-65
2022/06/10 13:29:22;;;;;;;2.80;2.10;;;;;;;24.39;61.25;100213.10;215728;1274;139480;-65
2022/06/10 13:34:34;;;;;;;2.30;2.20;;;;;;;24.37;60.89;100217.89;215889;1274;139663;-65
2022/06/10 13:39:44;;;;;;;1.70;1.70;;;;;;;24.33;59.89;100217.52;215156;1274;140184;-65
2022/06/10 13:44:50;;;;;;;1.80;1.70;;;;;;;24.29;60.10;100215.06;214548;1274;140221;-64
2022/06/10 13:50:25;;;;;;;3.00;2.00;;;;;;;24.28;59.76;100216.34;215977;1273;140326;-65
2022/06/10 13:55:38;;;;;;;2.20;2.00;;;;;;;24.27;59.47;100221.75;214966;1274;140504;-63
2022/06/10 14:00:46;;;;;;;4.70;1.60;;;;;;;24.39;59.61;100221.43;214197;1274;141170;-65
2022/06/10 14:06:18;;;;;;;1.90;1.80;;;;;;;24.46;59.28;100221.77;214577;1274;139873;-65
2022/06/10 14:11:37;;;;;;;2.30;2.20;;;;;;;24.51;59.35;100225.39;213534;1274;139788;-65
2022/06/10 14:16:42;;;;;;;3.60;2.00;;;;;;;24.47;59.16;100229.65;212979;1274;1212439;-65
2022/06/10 14:21:48;;;;;;;;;;;;;;;24.30;58.90;100226.92;214282;1273;140081;-65
2022/06/10 14:27:16;;;;;;;1.90;1.80;;;;;;;24.12;58.98;100225.95;214697;1274;127824;-65
2022/06/10 14:32:32;;;;;;;5.10;2.30;;;;;;;23.85;58.84;100221.31;214276;1274;140189;-64
2022/06/10 14:37:43;;;;;;;4.20;2.00;;;;;;;23.68;59.26;100215.09;213982;1274;140407;-64
2022/06/10 14:43:22;;;;;;;2.60;2.40;;;;;;;23.77;59.32;100212.38;214474;1274;140814;-64
2022/06/10 14:48:37;;;;;;;4.30;2.20;;;;;;;23.86;59.17;100211.01;213972;1274;139585;-64
2022/06/10 14:53:59;;;;;;;1.90;1.80;;;;;;;23.94;59.19;100201.81;214467;1274;140996;-64
2022/06/10 14:59:17;;;;;;;2.30;2.20;;;;;;;24.02;59.06;100202.89;213443;1274;142637;-64
2022/06/10 15:04:23;;;;;;;1.90;1.80;;;;;;;23.98;58.56;100202.30;214878;1274;140488;-64
2022/06/10 15:09:47;;;;;;;4.10;1.80;;;;;;;24.06;58.60;100200.36;214588;1274;141523;-65
2022/06/10 15:14:53;;;;;;;2.80;1.80;;;;;;;24.22;58.57;100201.88;215390;1274;140320;-65
2022/06/10 15:19:59;;;;;;;4.40;1.80;;;;;;;24.27;58.14;100202.73;216223;1274;139877;-65
2022/06/10 15:25:21;;;;;;;2.30;1.90;;;;;;;24.05;57.84;100202.34;216189;1274;140171;-65
2022/06/10 15:30:28;;;;;;;1.60;1.50;;;;;;;23.89;58.33;100198.62;214973;1274;142090;-64
2022/06/10 15:41:00;;;;;;;1.60;1.50;;;;;;;23.76;58.14;100198.40;216135;1274;140280;-63
2022/06/10 15:46:20;;;;;;;1.80;1.70;;;;;;;23.66;57.78;100198.64;215365;1274;140808;-63
2022/06/10 15:51:34;;;;;;;1.30;1.30;;;;;;;23.59;57.27;100201.52;214599;1274;142118;-63
2022/06/10 16:02:19;;;;;;;2.10;1.40;;;;;;;23.44;57.60;100206.56;213208;1272;140806;-62
2022/06/10 16:07:25;;;;;;;2.10;2.00;;;;;;;23.30;57.50;100212.27;213615;1274;140293;-64
2022/06/10 16:18:27;;;;;;;1.70;1.70;;;;;;;22.99;57.70;100222.77;213344;1274;140238;-65
2022/06/10 16:23:38;;;;;;;1.90;1.40;;;;;;;22.87;58.02;100222.29;213634;1274;140571;-66
2022/06/10 16:28:47;;;;;;;2.00;1.90;;;;;;;22.75;57.69;100224.79;213532;1274;139887;-65
2022/06/10 16:33:52;;;;;;;1.40;1.40;;;;;;;22.58;57.80;100227.30;214014;1273;141493;-65
2022/06/10 16:38:57;;;;;;;1.70;1.60;;;;;;;22.53;58.01;100223.48;214026;1274;141315;-65
2022/06/10 16:44:07;;;;;;;1.70;1.60;;;;;;;22.47;58.00;100223.21;214264;1274;141710;-65
2022/06/10 16:49:24;;;;;;;4.00;1.90;;;;;;;22.40;57.94;100232.91;214881;1274;142498;-66
2022/06/10 16:54:35;;;;;;;2.30;2.10;;;;;;;22.36;58.02;100235.98;213900;1271;141486;-67
2022/06/10 16:59:41;;;;;;;2.20;1.60;;;;;;;22.26;57.89;100239.71;215002;1272;141079;-66
2022/06/10 17:04:47;;;;;;;1.60;1.50;;;;;;;22.17;57.88;100241.40;216017;1273;139998;-66
2022/06/10 17:09:55;;;;;;;2.10;2.00;;;;;;;22.05;58.12;100247.77;215498;1274;141122;-66
2022/06/10 17:15:23;;;;;;;5.40;2.10;;;;;;;21.92;57.85;100250.06;216013;1274;141730;-66
2022/06/10 17:20:39;;;;;;;1.60;1.50;;;;;;;21.79;58.12;100248.62;216064;1273;140254;-67
2022/06/10 17:25:52;;;;;;;2.20;1.60;;;;;;;21.70;58.25;100253.56;216263;1272;140983;-65
2022/06/10 17:31:02;;;;;;;3.20;1.80;;;;;;;21.58;58.12;100257.94;216053;1274;140321;-65
2022/06/10 17:36:09;;;;;;;2.40;1.80;;;;;;;21.45;58.35;100255.79;213421;1274;140660;-67
2022/06/10 17:41:32;;;;;;;2.00;1.90;;;;;;;21.32;58.72;100259.20;214945;1273;140355;-65
2022/06/10 17:46:47;;;;;;;2.50;2.30;;;;;;;21.18;59.21;100263.25;215068;1274;139677;-65
2022/06/10 17:51:57;;;;;;;7.30;2.10;;;;;;;21.09;59.28;100259.95;213124;1274;141188;-63
2022/06/10 17:57:12;;;;;;;2.40;2.20;;;;;;;20.97;59.49;100261.20;213767;1273;139437;-65
2022/06/10 18:02:57;;;;;;;2.50;2.40;;;;;;;20.80;59.93;100266.45;214052;1271;139447;-66
2022/06/10 18:08:08;;;;;;;3.40;2.70;;;;;;;20.60;60.28;100267.77;213384;1272;141616;-64
2022/06/10 18:18:53;;;;;;;2.70;2.50;;;;;;;20.22;60.79;100274.20;214625;1274;140422;-65
2022/06/10 18:24:02;;;;;;;3.60;3.30;;;;;;;20.04;61.13;100277.34;213321;1272;140131;-65
2022/06/10 18:29:24;;;;;;;;;;;;;;;19.89;61.70;100280.49;214870;1273;140301;-62
2022/06/10 18:34:36;;;;;;;2.10;2.00;;;;;;;19.71;62.39;100289.40;215326;1273;127110;-64
2022/06/10 18:39:47;;;;;;;2.90;2.70;;;;;;;19.59;62.93;100294.73;214519;1273;140632;-65
2022/06/10 18:44:51;;;;;;;2.80;2.60;;;;;;;19.45;63.31;100304.09;214294;1271;140768;-65
2022/06/10 18:49:56;;;;;;;3.10;2.30;;;;;;;19.30;63.57;100316.22;213956;1272;141360;-64
2022/06/10 18:55:00;;;;;;;4.50;2.60;;;;;;;19.12;63.97;100320.64;215066;1272;140185;-63
2022/06/10 19:00:06;;;;;;;7.20;2.90;;;;;;;18.97;64.16;100324.31;215877;1272;139803;-64
2022/06/10 19:05:29;;;;;;;2.50;2.40;;;;;;;18.85;64.39;100332.95;214497;1274;141440;-65
2022/06/10 19:10:39;;;;;;;2.40;2.20;;;;;;;18.68;64.64;100340.16;215660;1271;140257;-65
2022/06/10 19:15:56;;;;;;;2.50;2.30;;;;;;;18.50;64.88;100347.40;215819;1271;139941;-62
2022/06/10 19:21:17;;;;;;;4.30;2.30;;;;;;;18.31;65.20;100348.52;216410;1271;141519;-65
2022/06/10 19:26:23;;;;;;;5.40;2.80;;;;;;;18.16;65.63;100357.20;215683;1271;140729;-64
2022/06/10 19:31:45;;;;;;;4.70;3.40;;;;;;;18.03;66.07;100356.16;215537;1271;141722;-64
2022/06/10 19:36:55;;;;;;;11.30;3.40;;;;;;;17.88;66.34;100359.11;215348;1271;140839;-63
2022/06/10 19:42:00;;;;;;;5.00;3.30;;;;;;;17.69;66.74;100363.92;215139;1271;141088;-63
2022/06/10 19:47:13;;;;;;;3.40;3.00;;;;;;;17.55;66.95;100369.48;215676;1271;140809;-63
2022/06/10 19:52:24;;;;;;;4.30;3.30;;;;;;;17.42;67.24;100377.41;213890;1271;165082;-64
2022/06/10 19:57:33;;;;;;;7.90;3.70;;;;;;;17.27;67.31;100378.64;214151;1271;141283;-63
2022/06/10 20:02:39;;;;;;;4.30;3.20;;;;;;;17.08;67.67;100378.66;214685;1269;140614;-62
2022/06/10 20:07:44;;;;;;;3.50;3.30;;;;;;;16.91;68.05;100382.86;213617;1271;140481;-64
2022/06/10 20:12:50;;;;;;;3.00;2.80;;;;;;;16.77;68.30;100387.53;214513;1271;139943;-66
2022/06/10 20:17:57;;;;;;;3.20;3.00;;;;;;;16.63;68.63;100383.16;214362;1271;140032;-65
2022/06/10 20:23:03;;;;;;;3.40;3.10;;;;;;;16.52;68.98;100386.30;213641;1274;141146;-64
2022/06/10 20:28:13;;;;;;;3.30;3.10;;;;;;;16.33;69.01;100388.41;214643;1271;140285;-65
2022/06/10 20:33:28;;;;;;;3.60;3.30;;;;;;;16.08;69.14;100393.58;214289;1272;139976;-65
2022/06/10 20:38:39;;;;;;;4.00;3.70;;;;;;;15.82;69.79;100393.59;214595;1271;141374;-65
2022/06/10 20:43:47;;;;;;;3.70;3.50;;;;;;;15.79;70.51;100393.39;214998;1271;142181;-65
2022/06/10 20:48:56;;;;;;;3.40;3.20;;;;;;;15.74;70.46;100396.90;215147;1271;140001;-67
2022/06/10 20:54:02;;;;;;;3.10;2.90;;;;;;;15.65;70.42;100400.23;214550;1272;139726;-64
2022/06/10 20:59:07;;;;;;;5.00;4.60;;;;;;;15.57;70.57;100402.08;215185;1273;141695;-65
2022/06/10 21:09:43;;;;;;;23.00;4.90;;;;;;;15.30;70.86;100396.77;215722;1271;140125;-65
2022/06/10 21:14:48;;;;;;;4.00;3.60;;;;;;;15.16;71.01;100393.48;216424;1271;140139;-65
2022/06/10 21:19:53;;;;;;;3.60;3.20;;;;;;;15.05;71.31;100390.64;216395;1271;141718;-64
2022/06/10 21:24:58;;;;;;;8.20;3.90;;;;;;;15.03;71.49;100388.77;216394;1271;139933;-64
2022/06/10 21:30:04;;;;;;;3.80;3.60;;;;;;;14.99;71.58;100386.05;215141;1271;141355;-63
2022/06/10 21:35:21;;;;;;;;;;;;;;;14.96;71.74;100376.84;214910;1274;161589;-63
2022/06/10 21:40:27;;;;;;;4.10;3.90;;;;;;;14.85;71.76;100375.44;214727;1273;128228;-65
2022/06/10 21:45:33;;;;;;;4.50;4.10;;;;;;;14.71;71.71;100375.99;214403;1272;140003;-65
2022/06/10 21:50:46;;;;;;;5.00;4.30;;;;;;;14.53;71.67;100380.83;214023;1271;140543;-65
2022/06/10 21:55:51;;;;;;;3.70;3.40;;;;;;;14.43;72.04;100378.99;214401;1271;164492;-64
2022/06/10 22:01:01;;;;;;;4.20;3.90;;;;;;;14.31;72.17;100375.90;214821;1271;140826;-65
2022/06/10 22:06:32;;;;;;;5.10;4.30;;;;;;;14.23;72.37;100378.98;214011;1272;140358;-65
2022/06/10 22:11:37;;;;;;;4.60;4.20;;;;;;;14.16;72.73;100380.02;213624;1271;141661;-64
2022/06/10 22:16:48;;;;;;;5.10;4.60;;;;;;;14.08;72.44;100386.96;213594;1272;141148;-63
2022/06/10 22:22:03;;;;;;;4.70;4.40;;;;;;;13.95;72.60;100382.50;213644;1271;141846;-64
2022/06/10 22:27:29;;;;;;;5.00;4.60;;;;;;;13.78;72.73;100378.56;214040;1273;141514;-64
2022/06/10 22:32:34;;;;;;;5.00;4.40;;;;;;;13.60;72.92;100382.13;214712;1271;141049;-64
2022/06/10 22:37:39;;;;;;;6.20;3.90;;;;;;;13.51;73.11;100376.43;215169;1273;140411;-64
2022/06/10 22:42:44;;;;;;;5.30;3.80;;;;;;;13.41;72.99;100380.42;213301;1274;142263;-64
2022/06/10 22:47:53;;;;;;;4.60;4.10;;;;;;;13.26;73.16;100387.13;213659;1274;140894;-63
2022/06/10 22:53:06;;;;;;;4.20;3.90;;;;;;;13.08;73.55;100392.23;214324;1271;142294;-64
2022/06/10 22:58:23;;;;;;;4.40;4.00;;;;;;;13.10;74.22;100388.60;214806;1271;141839;-64
2022/06/10 23:03:40;;;;;;;4.50;4.20;;;;;;;13.09;74.19;100386.98;216605;1271;139359;-65
2022/06/10 23:14:17;;;;;;;4.50;4.20;;;;;;;13.08;74.32;100388.65;215290;1271;141921;-67
2022/06/10 23:19:29;;;;;;;6.00;4.30;;;;;;;13.00;73.93;100382.04;216145;1271;141122;-66
2022/06/10 23:24:35;;;;;;;4.30;4.00;;;;;;;12.90;74.11;100383.48;215146;1271;139842;-64
2022/06/10 23:29:40;;;;;;;4.20;3.90;;;;;;;12.85;74.43;100383.84;215582;1271;139907;-64
2022/06/10 23:34:44;;;;;;;5.70;4.40;;;;;;;12.82;74.57;100387.98;214562;1271;140376;-65
2022/06/10 23:39:49;;;;;;;5.00;4.50;;;;;;;12.82;74.44;100394.33;214764;1271;142014;-65
2022/06/10 23:44:55;;;;;;;7.80;4.70;;;;;;;12.75;74.30;100398.55;214284;1271;141760;-63
